Terminal Aerodrome Forecast
Issued by NWS

Current Version | Previous Version | Graphics & Text | Print | Product List | Glossary On
Versions: 1 2 3 4 5 6 7 8 9 10 11 12 13 14 15 16 17 18 19 20
000
FTUS41 KPBZ 251257 AAA
TAFMGW
TAF AMD
KMGW 251257Z 2513/2612 VRB03KT P6SM FEW035 BKN200
     FM251500 22007KT P6SM SCT050
     FM260300 24006KT P6SM VCTS BKN035CB
     FM260600 VRB05KT P6SM VCSH BKN025=

USA.gov is the U.S. government's official web portal to all federal, state and local government web resources and services.